sensor_id;sensor_type;location;lat;lon;timestamp;pressure;altitude;pressure_sealevel;temperature;humidity
23677;BME280;31493;49.058;12.190;2023-01-30T00:01:21;96507.22;;;-2.89;100.00
23677;BME280;31493;49.058;12.190;2023-01-30T00:03:48;96508.91;;;-2.88;100.00
23677;BME280;31493;49.058;12.190;2023-01-30T00:06:15;96497.09;;;-2.90;100.00
23677;BME280;31493;49.058;12.190;2023-01-30T00:08:43;96508.88;;;-2.85;100.00
23677;BME280;31493;49.058;12.190;2023-01-30T00:11:11;96508.00;;;-2.84;100.00
23677;BME280;31493;49.058;12.190;2023-01-30T00:13:41;96508.75;;;-2.73;100.00
23677;BME280;31493;49.058;12.190;2023-01-30T00:16:09;96497.78;;;-2.72;100.00
23677;BME280;31493;49.058;12.190;2023-01-30T00:18:37;96487.72;;;-2.79;100.00
23677;BME280;31493;49.058;12.190;2023-01-30T00:21:06;96477.63;;;-2.82;100.00
23677;BME280;31493;49.058;12.190;2023-01-30T00:23:34;96490.25;;;-2.81;100.00
23677;BME280;31493;49.058;12.190;2023-01-30T00:26:02;96486.91;;;-2.81;100.00
23677;BME280;31493;49.058;12.190;2023-01-30T00:28:29;96479.28;;;-2.80;100.00
23677;BME280;31493;49.058;12.190;2023-01-30T00:30:58;96476.69;;;-2.77;100.00
23677;BME280;31493;49.058;12.190;2023-01-30T00:33:26;96479.22;;;-2.77;100.00
23677;BME280;31493;49.058;12.190;2023-01-30T00:35:55;96473.31;;;-2.74;100.00
23677;BME280;31493;49.058;12.190;2023-01-30T00:38:22;96472.38;;;-2.65;100.00
23677;BME280;31493;49.058;12.190;2023-01-30T00:40:49;96462.34;;;-2.75;100.00
23677;BME280;31493;49.058;12.190;2023-01-30T00:43:18;96450.47;;;-2.73;100.00
23677;BME280;31493;49.058;12.190;2023-01-30T00:46:09;96463.16;;;-2.73;100.00
23677;BME280;31493;49.058;12.190;2023-01-30T00:48:56;96458.09;;;-2.74;100.00
23677;BME280;31493;49.058;12.190;2023-01-30T00:51:23;96453.06;;;-2.77;100.00
23677;BME280;31493;49.058;12.190;2023-01-30T00:53:50;96448.00;;;-2.79;100.00
23677;BME280;31493;49.058;12.190;2023-01-30T00:56:17;96441.28;;;-2.83;100.00
23677;BME280;31493;49.058;12.190;2023-01-30T00:58:44;96447.19;;;-2.81;100.00
23677;BME280;31493;49.058;12.190;2023-01-30T01:01:12;96445.50;;;-2.80;100.00
23677;BME280;31493;49.058;12.190;2023-01-30T01:03:39;96432.84;;;-2.82;100.00
23677;BME280;31493;49.058;12.190;2023-01-30T01:06:06;96435.38;;;-2.85;100.00
23677;BME280;31493;49.058;12.190;2023-01-30T01:08:33;96432.78;;;-2.79;100.00
23677;BME280;31493;49.058;12.190;2023-01-30T01:11:00;96420.16;;;-2.83;100.00
23677;BME280;31493;49.058;12.190;2023-01-30T01:13:28;96430.31;;;-2.82;100.00
23677;BME280;31493;49.058;12.190;2023-01-30T01:15:55;96422.69;;;-2.83;100.00
23677;BME280;31493;49.058;12.190;2023-01-30T01:18:23;96410.03;;;-2.83;100.00
23677;BME280;31493;49.058;12.190;2023-01-30T01:20:50;96407.53;;;-2.85;100.00
23677;BME280;31493;49.058;12.190;2023-01-30T01:23:17;96421.88;;;-2.85;100.00
23677;BME280;31493;49.058;12.190;2023-01-30T01:25:44;96412.63;;;-2.86;100.00
23677;BME280;31493;49.058;12.190;2023-01-30T01:28:11;96403.25;;;-2.83;100.00
23677;BME280;31493;49.058;12.190;2023-01-30T01:30:38;96412.59;;;-2.85;100.00
23677;BME280;31493;49.058;12.190;2023-01-30T01:33:05;96419.41;;;-2.88;100.00
23677;BME280;31493;49.058;12.190;2023-01-30T01:35:39;96418.50;;;-2.84;100.00
23677;BME280;31493;49.058;12.190;2023-01-30T01:38:06;96419.31;;;-2.84;100.00
23677;BME280;31493;49.058;12.190;2023-01-30T01:40:33;96415.13;;;-2.85;100.00
23677;BME280;31493;49.058;12.190;2023-01-30T01:43:27;96426.94;;;-2.85;100.00
23677;BME280;31493;49.058;12.190;2023-01-30T01:45:58;96429.47;;;-2.82;100.00
23677;BME280;31493;49.058;12.190;2023-01-30T01:48:29;96440.47;;;-2.86;100.00
23677;BME280;31493;49.058;12.190;2023-01-30T01:51:02;96448.91;;;-2.86;100.00
23677;BME280;31493;49.058;12.190;2023-01-30T01:53:33;96469.19;;;-2.86;100.00
23677;BME280;31493;49.058;12.190;2023-01-30T01:56:03;96454.00;;;-2.86;100.00
23677;BME280;31493;49.058;12.190;2023-01-30T01:58:34;96458.22;;;-2.86;100.00
23677;BME280;31493;49.058;12.190;2023-01-30T02:01:03;96465.00;;;-2.88;100.00
23677;BME280;31493;49.058;12.190;2023-01-30T02:03:33;96455.66;;;-2.85;100.00
23677;BME280;31493;49.058;12.190;2023-01-30T02:06:04;96457.34;;;-2.85;100.00
23677;BME280;31493;49.058;12.190;2023-01-30T02:08:33;96462.44;;;-2.87;100.00
23677;BME280;31493;49.058;12.190;2023-01-30T02:11:08;96433.75;;;-2.87;100.00
23677;BME280;31493;49.058;12.190;2023-01-30T02:13:36;96429.50;;;-2.87;100.00
23677;BME280;31493;49.058;12.190;2023-01-30T02:16:06;96425.28;;;-2.89;100.00
23677;BME280;31493;49.058;12.190;2023-01-30T02:18:35;96416.00;;;-2.89;100.00
23677;BME280;31493;49.058;12.190;2023-01-30T02:24:28;96421.91;;;-2.87;100.00
23677;BME280;31493;49.058;12.190;2023-01-30T02:27:09;96421.06;;;-2.89;100.00
23677;BME280;31493;49.058;12.190;2023-01-30T02:32:50;96421.06;;;-2.87;100.00
23677;BME280;31493;49.058;12.190;2023-01-30T02:35:27;96414.34;;;-2.88;100.00
23677;BME280;31493;49.058;12.190;2023-01-30T02:38:15;96415.16;;;-2.86;100.00
23677;BME280;31493;49.058;12.190;2023-01-30T02:40:51;96405.03;;;-2.88;100.00
23677;BME280;31493;49.058;12.190;2023-01-30T02:43:27;96402.53;;;-2.92;100.00
23677;BME280;31493;49.058;12.190;2023-01-30T02:46:02;96390.72;;;-2.93;100.00
23677;BME280;31493;49.058;12.190;2023-01-30T02:48:37;96371.31;;;-2.94;100.00
23677;BME280;31493;49.058;12.190;2023-01-30T02:51:09;96368.75;;;-2.93;100.00
23677;BME280;31493;49.058;12.190;2023-01-30T02:53:38;96378.06;;;-2.95;100.00
23677;BME280;31493;49.058;12.190;2023-01-30T02:56:06;96377.25;;;-2.99;100.00
23677;BME280;31493;49.058;12.190;2023-01-30T02:58:36;96389.03;;;-2.96;100.00
23677;BME280;31493;49.058;12.190;2023-01-30T03:01:24;96373.00;;;-2.95;100.00
23677;BME280;31493;49.058;12.190;2023-01-30T03:04:11;96376.38;;;-2.96;100.00
23677;BME280;31493;49.058;12.190;2023-01-30T03:07:06;96375.53;;;-2.93;100.00
23677;BME280;31493;49.058;12.190;2023-01-30T03:09:45;96375.56;;;-2.98;100.00
23677;BME280;31493;49.058;12.190;2023-01-30T03:12:17;96372.22;;;-3.00;100.00
23677;BME280;31493;49.058;12.190;2023-01-30T03:14:48;96362.00;;;-2.92;100.00
23677;BME280;31493;49.058;12.190;2023-01-30T03:17:19;96351.06;;;-2.98;100.00
23677;BME280;31493;49.058;12.190;2023-01-30T03:19:51;96340.91;;;-2.93;100.00
23677;BME280;31493;49.058;12.190;2023-01-30T03:22:20;96322.34;;;-2.97;100.00
23677;BME280;31493;49.058;12.190;2023-01-30T03:24:48;96313.84;;;-2.91;100.00
23677;BME280;31493;49.058;12.190;2023-01-30T03:27:17;96313.06;;;-2.94;100.00
23677;BME280;31493;49.058;12.190;2023-01-30T03:29:45;96273.34;;;-2.95;100.00
23677;BME280;31493;49.058;12.190;2023-01-30T03:32:12;96273.34;;;-2.95;100.00
23677;BME280;31493;49.058;12.190;2023-01-30T03:34:39;96270.88;;;-3.02;100.00
23677;BME280;31493;49.058;12.190;2023-01-30T03:37:08;96310.56;;;-2.99;100.00
23677;BME280;31493;49.058;12.190;2023-01-30T03:39:35;96344.28;;;-2.95;100.00
23677;BME280;31493;49.058;12.190;2023-01-30T03:42:03;96337.53;;;-2.97;100.00
23677;BME280;31493;49.058;12.190;2023-01-30T03:44:30;96335.03;;;-2.98;100.00
23677;BME280;31493;49.058;12.190;2023-01-30T03:46:57;96353.53;;;-2.91;100.00
23677;BME280;31493;49.058;12.190;2023-01-30T03:49:24;96340.09;;;-2.98;100.00
23677;BME280;31493;49.058;12.190;2023-01-30T03:51:51;96340.84;;;-2.90;100.00
23677;BME280;31493;49.058;12.190;2023-01-30T03:54:19;96336.66;;;-2.92;100.00
23677;BME280;31493;49.058;12.190;2023-01-30T03:56:46;96318.06;;;-2.91;100.00
23677;BME280;31493;49.058;12.190;2023-01-30T03:59:13;96320.59;;;-2.91;100.00
23677;BME280;31493;49.058;12.190;2023-01-30T04:01:40;96296.13;;;-2.92;100.00
23677;BME280;31493;49.058;12.190;2023-01-30T04:04:07;96287.72;;;-2.94;100.00
23677;BME280;31493;49.058;12.190;2023-01-30T04:06:34;96280.06;;;-2.91;100.00
23677;BME280;31493;49.058;12.190;2023-01-30T04:09:02;96250.56;;;-2.95;100.00
23677;BME280;31493;49.058;12.190;2023-01-30T04:11:30;96253.88;;;-2.90;100.00
23677;BME280;31493;49.058;12.190;2023-01-30T04:13:57;96257.31;;;-2.96;100.00
23677;BME280;31493;49.058;12.190;2023-01-30T04:16:25;96256.47;;;-2.93;100.00
23677;BME280;31493;49.058;12.190;2023-01-30T04:18:52;96242.97;;;-2.94;100.00
23677;BME280;31493;49.058;12.190;2023-01-30T04:21:20;96241.22;;;-2.92;100.00
23677;BME280;31493;49.058;12.190;2023-01-30T04:23:47;96227.75;;;-2.95;100.00
23677;BME280;31493;49.058;12.190;2023-01-30T04:26:14;96240.44;;;-2.97;100.00
23677;BME280;31493;49.058;12.190;2023-01-30T04:28:43;96242.09;;;-2.93;100.00
23677;BME280;31493;49.058;12.190;2023-01-30T04:31:10;96237.97;;;-3.00;100.00
23677;BME280;31493;49.058;12.190;2023-01-30T04:33:38;96254.75;;;-2.93;100.00
23677;BME280;31493;49.058;12.190;2023-01-30T04:36:07;96240.34;;;-2.89;100.00
23677;BME280;31493;49.058;12.190;2023-01-30T04:38:34;96227.81;;;-2.99;100.00
23677;BME280;31493;49.058;12.190;2023-01-30T04:41:02;96215.00;;;-2.89;100.00
23677;BME280;31493;49.058;12.190;2023-01-30T04:43:30;96218.53;;;-3.00;100.00
23677;BME280;31493;49.058;12.190;2023-01-30T04:45:58;96206.69;;;-2.98;100.00
23677;BME280;31493;49.058;12.190;2023-01-30T04:48:25;96225.22;;;-2.95;100.00
23677;BME280;31493;49.058;12.190;2023-01-30T04:50:56;96211.66;;;-2.91;100.00
23677;BME280;31493;49.058;12.190;2023-01-30T04:53:24;96210.84;;;-2.95;100.00
23677;BME280;31493;49.058;12.190;2023-01-30T04:55:51;96204.94;;;-2.92;100.00
23677;BME280;31493;49.058;12.190;2023-01-30T04:58:18;96208.28;;;-2.92;100.00
23677;BME280;31493;49.058;12.190;2023-01-30T05:00:45;96212.56;;;-2.94;100.00
23677;BME280;31493;49.058;12.190;2023-01-30T05:03:14;96208.22;;;-2.86;100.00
23677;BME280;31493;49.058;12.190;2023-01-30T05:05:41;96214.16;;;-2.90;100.00
23677;BME280;31493;49.058;12.190;2023-01-30T05:08:08;96204.91;;;-2.91;100.00
23677;BME280;31493;49.058;12.190;2023-01-30T05:10:35;96206.66;;;-2.96;100.00
23677;BME280;31493;49.058;12.190;2023-01-30T05:13:03;96209.19;;;-2.94;100.00
23677;BME280;31493;49.058;12.190;2023-01-30T05:15:31;96215.97;;;-2.98;100.00
23677;BME280;31493;49.058;12.190;2023-01-30T05:17:59;96216.72;;;-2.91;100.00
23677;BME280;31493;49.058;12.190;2023-01-30T05:20:28;96199.84;;;-2.92;100.00
23677;BME280;31493;49.058;12.190;2023-01-30T05:22:55;96215.09;;;-2.95;100.00
23677;BME280;31493;49.058;12.190;2023-01-30T05:25:22;96228.56;;;-2.92;100.00
23677;BME280;31493;49.058;12.190;2023-01-30T05:27:49;96221.84;;;-2.96;100.00
23677;BME280;31493;49.058;12.190;2023-01-30T05:30:16;96219.31;;;-2.94;100.00
23677;BME280;31493;49.058;12.190;2023-01-30T05:32:43;96221.03;;;-2.98;100.00
23677;BME280;31493;49.058;12.190;2023-01-30T05:35:10;96227.75;;;-2.94;100.00
23677;BME280;31493;49.058;12.190;2023-01-30T05:37:39;96227.75;;;-2.94;100.00
23677;BME280;31493;49.058;12.190;2023-01-30T05:40:07;96240.25;;;-2.83;100.00
23677;BME280;31493;49.058;12.190;2023-01-30T05:42:34;96238.63;;;-2.86;100.00
23677;BME280;31493;49.058;12.190;2023-01-30T05:45:01;96248.78;;;-2.89;100.00
23677;BME280;31493;49.058;12.190;2023-01-30T05:47:28;96233.63;;;-2.92;100.00
23677;BME280;31493;49.058;12.190;2023-01-30T05:49:55;96228.56;;;-2.92;100.00
23677;BME280;31493;49.058;12.190;2023-01-30T05:52:22;96230.28;;;-2.94;100.00
23677;BME280;31493;49.058;12.190;2023-01-30T05:54:50;96223.50;;;-2.92;100.00
23677;BME280;31493;49.058;12.190;2023-01-30T05:57:17;96214.28;;;-2.98;100.00
23677;BME280;31493;49.058;12.190;2023-01-30T05:59:44;96206.72;;;-3.02;100.00
23677;BME280;31493;49.058;12.190;2023-01-30T06:02:11;96203.41;;;-3.07;100.00
23677;BME280;31493;49.058;12.190;2023-01-30T06:04:38;96201.75;;;-3.07;100.00
23677;BME280;31493;49.058;12.190;2023-01-30T06:07:05;96179.84;;;-3.14;100.00
23677;BME280;31493;49.058;12.190;2023-01-30T06:09:32;96180.69;;;-3.13;100.00
23677;BME280;31493;49.058;12.190;2023-01-30T06:12:01;96176.53;;;-3.17;100.00
23677;BME280;31493;49.058;12.190;2023-01-30T06:14:28;96195.91;;;-3.12;100.00
23677;BME280;31493;49.058;12.190;2023-01-30T06:16:55;96208.56;;;-3.13;100.00
23677;BME280;31493;49.058;12.190;2023-01-30T06:19:22;96200.91;;;-3.09;100.00
23677;BME280;31493;49.058;12.190;2023-01-30T06:21:49;96186.53;;;-3.07;100.00
23677;BME280;31493;49.058;12.190;2023-01-30T06:24:16;96189.97;;;-3.11;100.00
23677;BME280;31493;49.058;12.190;2023-01-30T06:26:43;96182.38;;;-3.11;100.00
23677;BME280;31493;49.058;12.190;2023-01-30T06:29:11;96170.47;;;-3.07;100.00
23677;BME280;31493;49.058;12.190;2023-01-30T06:31:38;96172.19;;;-3.06;100.00
23677;BME280;31493;49.058;12.190;2023-01-30T06:34:05;96172.09;;;-3.00;100.00
23677;BME280;31493;49.058;12.190;2023-01-30T06:36:32;96189.81;;;-2.99;100.00
23677;BME280;31493;49.058;12.190;2023-01-30T06:38:59;96183.03;;;-2.98;100.00
23677;BME280;31493;49.058;12.190;2023-01-30T06:41:26;96169.47;;;-2.95;100.00
23677;BME280;31493;49.058;12.190;2023-01-30T06:43:53;96173.69;;;-2.93;100.00
23677;BME280;31493;49.058;12.190;2023-01-30T06:46:22;96164.41;;;-2.95;100.00
23677;BME280;31493;49.058;12.190;2023-01-30T06:48:49;96175.38;;;-2.95;100.00
23677;BME280;31493;49.058;12.190;2023-01-30T06:51:16;96173.72;;;-2.94;100.00
23677;BME280;31493;49.058;12.190;2023-01-30T06:53:43;96163.56;;;-2.93;100.00
23677;BME280;31493;49.058;12.190;2023-01-30T06:56:10;96166.84;;;-2.86;100.00
23677;BME280;31493;49.058;12.190;2023-01-30T06:58:37;96164.31;;;-2.86;100.00
23677;BME280;31493;49.058;12.190;2023-01-30T07:01:04;96156.59;;;-2.79;100.00
23677;BME280;31493;49.058;12.190;2023-01-30T07:03:32;96169.22;;;-2.77;100.00
23677;BME280;31493;49.058;12.190;2023-01-30T07:05:59;96164.16;;;-2.76;100.00
23677;BME280;31493;49.058;12.190;2023-01-30T07:08:26;96157.41;;;-2.77;100.00
23677;BME280;31493;49.058;12.190;2023-01-30T07:10:53;96160.78;;;-2.78;100.00
23677;BME280;31493;49.058;12.190;2023-01-30T07:13:20;96161.59;;;-2.74;100.00
23677;BME280;31493;49.058;12.190;2023-01-30T07:15:47;96162.38;;;-2.71;100.00
23677;BME280;31493;49.058;12.190;2023-01-30T07:18:15;96159.81;;;-2.67;100.00
23677;BME280;31493;49.058;12.190;2023-01-30T07:20:46;96162.31;;;-2.66;100.00
23677;BME280;31493;49.058;12.190;2023-01-30T07:23:13;96161.50;;;-2.68;100.00
23677;BME280;31493;49.058;12.190;2023-01-30T07:25:40;96140.41;;;-2.68;100.00
23677;BME280;31493;49.058;12.190;2023-01-30T07:28:08;96141.94;;;-2.60;100.00
23677;BME280;31493;49.058;12.190;2023-01-30T07:30:35;96121.66;;;-2.60;100.00
23677;BME280;31493;49.058;12.190;2023-01-30T07:33:04;96132.63;;;-2.58;100.00
23677;BME280;31493;49.058;12.190;2023-01-30T07:35:33;96127.53;;;-2.56;100.00
23677;BME280;31493;49.058;12.190;2023-01-30T07:38:03;96125.78;;;-2.51;100.00
23677;BME280;31493;49.058;12.190;2023-01-30T07:40:30;96122.38;;;-2.52;100.00
23677;BME280;31493;49.058;12.190;2023-01-30T07:42:58;96129.03;;;-2.46;100.00
23677;BME280;31493;49.058;12.190;2023-01-30T07:45:27;96127.44;;;-2.50;100.00
23677;BME280;31493;49.058;12.190;2023-01-30T07:47:55;96135.88;;;-2.50;100.00
23677;BME280;31493;49.058;12.190;2023-01-30T07:50:22;96140.81;;;-2.42;100.00
23677;BME280;31493;49.058;12.190;2023-01-30T07:52:49;96137.38;;;-2.39;100.00
23677;BME280;31493;49.058;12.190;2023-01-30T07:55:17;96139.94;;;-2.38;100.00
23677;BME280;31493;49.058;12.190;2023-01-30T07:57:44;96134.75;;;-2.32;100.00
23677;BME280;31493;49.058;12.190;2023-01-30T08:00:12;96123.72;;;-2.29;100.00
23677;BME280;31493;49.058;12.190;2023-01-30T08:02:40;96121.03;;;-2.20;100.00
23677;BME280;31493;49.058;12.190;2023-01-30T08:05:07;96120.88;;;-2.12;100.00
23677;BME280;31493;49.058;12.190;2023-01-30T08:07:34;96130.25;;;-2.14;100.00
23677;BME280;31493;49.058;12.190;2023-01-30T08:10:02;96125.06;;;-2.10;100.00
23677;BME280;31493;49.058;12.190;2023-01-30T08:12:31;96122.38;;;-2.01;100.00
23677;BME280;31493;49.058;12.190;2023-01-30T08:14:58;96125.69;;;-1.96;100.00
23677;BME280;31493;49.058;12.190;2023-01-30T08:17:25;96138.44;;;-2.00;100.00
23677;BME280;31493;49.058;12.190;2023-01-30T08:19:52;96138.38;;;-1.96;100.00
23677;BME280;31493;49.058;12.190;2023-01-30T08:22:19;96141.69;;;-1.94;100.00
23677;BME280;31493;49.058;12.190;2023-01-30T08:24:46;96139.19;;;-1.97;100.00
23677;BME280;31493;49.058;12.190;2023-01-30T08:27:13;96128.94;;;-1.89;100.00
23677;BME280;31493;49.058;12.190;2023-01-30T08:29:42;96128.91;;;-1.87;100.00
23677;BME280;31493;49.058;12.190;2023-01-30T08:32:09;96111.09;;;-1.86;100.00
23677;BME280;31493;49.058;12.190;2023-01-30T08:34:36;96113.59;;;-1.83;100.00
23677;BME280;31493;49.058;12.190;2023-01-30T08:37:03;96105.88;;;-1.77;100.00
23677;BME280;31493;49.058;12.190;2023-01-30T08:39:30;96107.47;;;-1.73;100.00
23677;BME280;31493;49.058;12.190;2023-01-30T08:41:57;96116.78;;;-1.72;100.00
23677;BME280;31493;49.058;12.190;2023-01-30T08:44:24;96105.59;;;-1.63;100.00
23677;BME280;31493;49.058;12.190;2023-01-30T08:46:52;96098.84;;;-1.64;100.00
23677;BME280;31493;49.058;12.190;2023-01-30T08:49:19;96102.06;;;-1.56;100.00
23677;BME280;31493;49.058;12.190;2023-01-30T08:51:46;96099.47;;;-1.54;100.00
23677;BME280;31493;49.058;12.190;2023-01-30T08:54:13;96112.06;;;-1.47;100.00
23677;BME280;31493;49.058;12.190;2023-01-30T08:56:40;96091.78;;;-1.50;100.00
23677;BME280;31493;49.058;12.190;2023-01-30T08:59:07;96085.75;;;-1.44;100.00
23677;BME280;31493;49.058;12.190;2023-01-30T09:01:34;96078.00;;;-1.38;100.00
23677;BME280;31493;49.058;12.190;2023-01-30T09:04:04;96063.34;;;-1.25;100.00
23677;BME280;31493;49.058;12.190;2023-01-30T09:06:31;96057.28;;;-1.20;100.00
23677;BME280;31493;49.058;12.190;2023-01-30T09:08:58;96069.78;;;-1.11;100.00
23677;BME280;31493;49.058;12.190;2023-01-30T09:11:26;96069.47;;;-0.97;100.00
23677;BME280;31493;49.058;12.190;2023-01-30T09:13:53;96043.09;;;-0.93;100.00
23677;BME280;31493;49.058;12.190;2023-01-30T09:16:20;96031.22;;;-0.92;100.00
23677;BME280;31493;49.058;12.190;2023-01-30T09:18:47;96033.56;;;-0.83;100.00
23677;BME280;31493;49.058;12.190;2023-01-30T09:21:15;96050.34;;;-0.76;100.00
23677;BME280;31493;49.058;12.190;2023-01-30T09:23:42;96051.31;;;-0.82;100.00
23677;BME280;31493;49.058;12.190;2023-01-30T09:26:09;96030.94;;;-0.78;100.00
23677;BME280;31493;49.058;12.190;2023-01-30T09:28:36;96028.19;;;-0.71;100.00
23677;BME280;31493;49.058;12.190;2023-01-30T09:31:03;96033.31;;;-0.72;100.00
23677;BME280;31493;49.058;12.190;2023-01-30T09:33:30;96031.63;;;-0.72;100.00
23677;BME280;31493;49.058;12.190;2023-01-30T09:35:57;96035.03;;;-0.73;100.00
23677;BME280;31493;49.058;12.190;2023-01-30T09:38:26;96043.50;;;-0.74;100.00
23677;BME280;31493;49.058;12.190;2023-01-30T09:41:05;96048.53;;;-0.71;100.00
23677;BME280;31493;49.058;12.190;2023-01-30T09:43:44;96021.59;;;-0.78;100.00
23677;BME280;31493;49.058;12.190;2023-01-30T09:46:20;96045.38;;;-0.81;100.00
23677;BME280;31493;49.058;12.190;2023-01-30T09:48:58;96039.44;;;-0.79;100.00
23677;BME280;31493;49.058;12.190;2023-01-30T09:51:38;96040.22;;;-0.77;100.00
23677;BME280;31493;49.058;12.190;2023-01-30T09:54:15;96030.09;;;-0.79;100.00
23677;BME280;31493;49.058;12.190;2023-01-30T09:56:45;96036.06;;;-0.82;100.00
23677;BME280;31493;49.058;12.190;2023-01-30T09:59:18;96024.00;;;-0.72;100.00
23677;BME280;31493;49.058;12.190;2023-01-30T10:01:55;96024.13;;;-0.78;100.00
23677;BME280;31493;49.058;12.190;2023-01-30T10:04:30;96014.81;;;-0.77;100.00
23677;BME280;31493;49.058;12.190;2023-01-30T10:07:07;96029.94;;;-0.73;100.00
23677;BME280;31493;49.058;12.190;2023-01-30T10:09:47;96030.78;;;-0.74;100.00
23677;BME280;31493;49.058;12.190;2023-01-30T10:12:30;96020.72;;;-0.77;100.00
23677;BME280;31493;49.058;12.190;2023-01-30T10:15:21;96020.66;;;-0.75;100.00
23677;BME280;31493;49.058;12.190;2023-01-30T10:20:51;96013.13;;;-0.78;100.00
23677;BME280;31493;49.058;12.190;2023-01-30T10:23:36;96004.69;;;-0.79;100.00
23677;BME280;31493;49.058;12.190;2023-01-30T10:26:13;96020.00;;;-0.82;100.00
23677;BME280;31493;49.058;12.190;2023-01-30T10:28:43;95990.47;;;-0.88;100.00
23677;BME280;31493;49.058;12.190;2023-01-30T10:31:15;96003.19;;;-0.88;100.00
23677;BME280;31493;49.058;12.190;2023-01-30T10:33:54;96010.75;;;-0.86;100.00
23677;BME280;31493;49.058;12.190;2023-01-30T10:36:25;95993.84;;;-0.87;100.00
23677;BME280;31493;49.058;12.190;2023-01-30T10:38:56;96000.69;;;-0.89;100.00
23677;BME280;31493;49.058;12.190;2023-01-30T10:41:30;96011.72;;;-0.90;100.00
23677;BME280;31493;49.058;12.190;2023-01-30T10:44:02;95999.88;;;-0.91;100.00
23677;BME280;31493;49.058;12.190;2023-01-30T10:46:45;95997.22;;;-0.87;100.00
23677;BME280;31493;49.058;12.190;2023-01-30T10:49:18;95997.38;;;-0.93;100.00
23677;BME280;31493;49.058;12.190;2023-01-30T10:51:54;95988.03;;;-0.92;100.00
23677;BME280;31493;49.058;12.190;2023-01-30T10:54:28;95977.84;;;-0.91;100.00
23677;BME280;31493;49.058;12.190;2023-01-30T10:57:04;95969.44;;;-0.94;100.00
23677;BME280;31493;49.058;12.190;2023-01-30T10:59:45;95983.81;;;-0.93;100.00
23677;BME280;31493;49.058;12.190;2023-01-30T11:02:23;95980.50;;;-0.95;100.00
23677;BME280;31493;49.058;12.190;2023-01-30T11:04:56;95960.16;;;-0.95;100.00
23677;BME280;31493;49.058;12.190;2023-01-30T11:07:24;95951.91;;;-1.03;100.00
23677;BME280;31493;49.058;12.190;2023-01-30T11:09:51;95967.09;;;-1.02;100.00
23677;BME280;31493;49.058;12.190;2023-01-30T11:12:19;95968.78;;;-1.01;100.00
23677;BME280;31493;49.058;12.190;2023-01-30T11:14:54;95956.16;;;-1.05;100.00
23677;BME280;31493;49.058;12.190;2023-01-30T11:17:33;95972.19;;;-1.02;100.00
23677;BME280;31493;49.058;12.190;2023-01-30T11:20:06;95981.47;;;-1.01;100.00
23677;BME280;31493;49.058;12.190;2023-01-30T11:22:35;95970.63;;;-1.08;100.00
23677;BME280;31493;49.058;12.190;2023-01-30T11:25:05;95974.94;;;-1.11;100.00
23677;BME280;31493;49.058;12.190;2023-01-30T11:27:34;95957.91;;;-1.08;100.00
23677;BME280;31493;49.058;12.190;2023-01-30T11:30:05;95959.66;;;-1.10;100.00
23677;BME280;31493;49.058;12.190;2023-01-30T11:32:33;95950.25;;;-1.06;100.00
23677;BME280;31493;49.058;12.190;2023-01-30T11:35:03;95936.66;;;-1.05;100.00
23677;BME280;31493;49.058;12.190;2023-01-30T11:37:43;95935.78;;;-1.02;100.00
23677;BME280;31493;49.058;12.190;2023-01-30T11:40:21;95933.25;;;-1.02;100.00
23677;BME280;31493;49.058;12.190;2023-01-30T11:42:58;95938.28;;;-1.01;100.00
23677;BME280;31493;49.058;12.190;2023-01-30T11:45:25;95947.47;;;-0.95;100.00
23677;BME280;31493;49.058;12.190;2023-01-30T11:47:57;95938.16;;;-0.96;100.00
23677;BME280;31493;49.058;12.190;2023-01-30T11:50:30;95942.41;;;-0.97;100.00
23677;BME280;31493;49.058;12.190;2023-01-30T11:53:01;95937.19;;;-0.92;100.00
23677;BME280;31493;49.058;12.190;2023-01-30T11:55:32;95931.22;;;-0.90;100.00
23677;BME280;31493;49.058;12.190;2023-01-30T11:58:04;95930.44;;;-0.93;100.00
23677;BME280;31493;49.058;12.190;2023-01-30T12:00:38;95921.94;;;-0.91;100.00
23677;BME280;31493;49.058;12.190;2023-01-30T12:03:10;95926.13;;;-0.90;100.00
23677;BME280;31493;49.058;12.190;2023-01-30T12:05:39;95921.88;;;-0.89;100.00
23677;BME280;31493;49.058;12.190;2023-01-30T12:08:15;95924.31;;;-0.85;100.00
23677;BME280;31493;49.058;12.190;2023-01-30T12:10:50;95925.16;;;-0.84;100.00
23677;BME280;31493;49.058;12.190;2023-01-30T12:13:26;95905.41;;;-0.74;100.00
23677;BME280;31493;49.058;12.190;2023-01-30T12:16:04;95912.13;;;-0.72;100.00
23677;BME280;31493;49.058;12.190;2023-01-30T12:18:41;95899.47;;;-0.73;100.00
23677;BME280;31493;49.058;12.190;2023-01-30T12:21:20;95913.56;;;-0.63;100.00
23677;BME280;31493;49.058;12.190;2023-01-30T12:23:56;95913.53;;;-0.62;100.00
23677;BME280;31493;49.058;12.190;2023-01-30T12:26:29;95901.75;;;-0.64;100.00
23677;BME280;31493;49.058;12.190;2023-01-30T12:29:02;95904.84;;;-0.53;100.00
23677;BME280;31493;49.058;12.190;2023-01-30T12:31:34;95904.75;;;-0.50;100.00
23677;BME280;31493;49.058;12.190;2023-01-30T12:34:02;95898.13;;;-0.56;100.00
23677;BME280;31493;49.058;12.190;2023-01-30T12:36:35;95893.88;;;-0.55;100.00
23677;BME280;31493;49.058;12.190;2023-01-30T12:39:12;95886.22;;;-0.53;100.00
23677;BME280;31493;49.058;12.190;2023-01-30T12:41:48;95891.25;;;-0.52;100.00
23677;BME280;31493;49.058;12.190;2023-01-30T12:44:29;95908.28;;;-0.56;100.00
23677;BME280;31493;49.058;12.190;2023-01-30T12:47:21;95888.81;;;-0.55;100.00
23677;BME280;31493;49.058;12.190;2023-01-30T12:50:00;95900.75;;;-0.59;100.00
23677;BME280;31493;49.058;12.190;2023-01-30T12:52:39;95905.75;;;-0.56;100.00
23677;BME280;31493;49.058;12.190;2023-01-30T12:55:20;95902.41;;;-0.58;100.00
23677;BME280;31493;49.058;12.190;2023-01-30T12:57:52;95905.78;;;-0.57;100.00
23677;BME280;31493;49.058;12.190;2023-01-30T13:00:37;95904.06;;;-0.55;100.00
23677;BME280;31493;49.058;12.190;2023-01-30T13:03:18;95899.88;;;-0.58;100.00
23677;BME280;31493;49.058;12.190;2023-01-30T13:05:51;95898.25;;;-0.60;100.00